Time;durP1;ratioP1;P1;durP2;ratioP2;P2;SDS_P1;SDS_P2;PMS_P1;PMS_P2;Temp;Humidity;BMP_temperature;BMP_pressure;BME280_temperature;BME280_humidity;BME280_pressure;Samples;Min_cycle;Max_cycle;Signal;HPM_P1;HPM_P2
2022/12/10 00:00:22;;;;;;;37.57;19.30;;;;;;;9.40;100.00;100818.81;2071463;28;20181;-66
2022/12/10 00:01:24;;;;;;;37.07;19.53;;;;;;;9.57;100.00;100823.25;2071172;28;20478;-65
2022/12/10 00:02:24;;;;;;;34.07;19.43;;;;;;;9.60;100.00;100824.41;2070945;28;20194;-65
2022/12/10 00:03:24;;;;;;;36.33;18.87;;;;;;;9.63;100.00;100826.34;2069354;28;20515;-65
2022/12/10 00:04:25;;;;;;;36.03;18.87;;;;;;;9.60;100.00;100816.91;2071502;28;20212;-65
2022/12/10 00:05:25;;;;;;;38.07;19.63;;;;;;;9.62;100.00;100819.22;2070505;28;20185;-66
2022/12/10 00:06:29;;;;;;;33.97;19.03;;;;;;;9.67;100.00;100818.75;2071116;28;20195;-66
2022/12/10 00:07:29;;;;;;;42.27;19.20;;;;;;;9.68;100.00;100823.84;2071578;28;20288;-65
2022/12/10 00:08:30;;;;;;;41.00;19.10;;;;;;;9.57;100.00;100812.19;2071450;28;20480;-66
2022/12/10 00:09:30;;;;;;;36.83;19.10;;;;;;;9.64;100.00;100822.38;2071332;28;20185;-66
2022/12/10 00:10:31;;;;;;;40.07;20.77;;;;;;;9.66;100.00;100822.72;2071648;28;20475;-65
2022/12/10 00:11:32;;;;;;;41.93;18.90;;;;;;;9.41;100.00;100778.09;2071372;28;20197;-65
2022/12/10 00:12:32;;;;;;;32.23;18.40;;;;;;;9.40;100.00;100771.78;2071090;28;20238;-66
2022/12/10 00:13:35;;;;;;;53.17;19.13;;;;;;;9.41;100.00;100784.41;2071087;28;20453;-65
2022/12/10 00:14:36;;;;;;;38.40;18.63;;;;;;;9.65;100.00;100824.72;2070764;28;20170;-65
2022/12/10 00:15:36;;;;;;;33.57;19.00;;;;;;;9.64;100.00;100825.13;2070557;28;20543;-66
2022/12/10 00:16:37;;;;;;;35.73;18.83;;;;;;;9.50;100.00;100812.31;2071247;28;20188;-66
2022/12/10 00:17:37;;;;;;;35.73;18.80;;;;;;;9.65;100.00;100819.19;2071300;28;20213;-66
2022/12/10 00:18:39;;;;;;;32.53;18.70;;;;;;;9.68;100.00;100810.03;2071742;28;20420;-65
2022/12/10 00:19:39;;;;;;;45.17;19.30;;;;;;;9.66;100.00;100804.13;2071249;28;20189;-66
2022/12/10 00:20:40;;;;;;;38.60;19.17;;;;;;;9.67;100.00;100815.97;2071598;28;20980;-65
2022/12/10 00:21:40;;;;;;;40.03;18.57;;;;;;;9.62;100.00;100808.94;2071521;28;20603;-66
2022/12/10 00:22:41;;;;;;;37.83;19.27;;;;;;;9.39;100.00;100770.19;2070465;28;20252;-66
2022/12/10 00:23:42;;;;;;;38.70;19.57;;;;;;;9.73;100.00;100828.91;2070331;28;20197;-66
2022/12/10 00:24:42;;;;;;;36.47;18.97;;;;;;;9.74;100.00;100833.22;2071235;28;20201;-65
2022/12/10 00:25:43;;;;;;;39.60;17.63;;;;;;;9.75;100.00;100832.06;2070834;28;20268;-66
2022/12/10 00:26:45;;;;;;;40.27;17.70;;;;;;;9.72;100.00;100821.03;2071610;28;20186;-65
2022/12/10 00:27:46;;;;;;;39.23;18.30;;;;;;;9.76;100.00;100824.53;2072833;28;20218;-65
2022/12/10 00:28:47;;;;;;;40.43;18.10;;;;;;;9.76;100.00;100822.53;2073230;28;20451;-66
2022/12/10 00:29:47;;;;;;;35.47;18.10;;;;;;;9.79;100.00;100829.22;2073040;28;20236;-66
2022/12/10 00:30:48;;;;;;;42.10;18.10;;;;;;;9.72;100.00;100832.09;2073173;28;20432;-65
2022/12/10 00:31:48;;;;;;;38.77;18.20;;;;;;;9.69;100.00;100830.19;2072605;28;20182;-66
2022/12/10 00:32:49;;;;;;;34.00;18.10;;;;;;;9.68;100.00;100826.63;2072537;28;20177;-66
2022/12/10 00:33:49;;;;;;;49.17;19.20;;;;;;;9.54;100.00;100795.66;2072913;28;20634;-66
2022/12/10 00:34:50;;;;;;;59.33;19.47;;;;;;;9.64;100.00;100805.75;2073019;28;20185;-66
2022/12/10 00:35:50;;;;;;;40.87;20.03;;;;;;;9.67;100.00;100824.28;2072615;28;20182;-66
2022/12/10 00:36:51;;;;;;;37.87;18.47;;;;;;;9.45;100.00;100778.81;2073185;28;20192;-66
2022/12/10 00:37:51;;;;;;;73.53;19.30;;;;;;;9.68;100.00;100810.03;2072928;28;20670;-66
2022/12/10 00:38:52;;;;;;;63.07;18.47;;;;;;;9.66;100.00;100811.66;2073025;28;20203;-66
2022/12/10 00:39:53;;;;;;;41.93;18.83;;;;;;;9.66;100.00;100811.66;2072418;28;20189;-66
2022/12/10 00:40:53;;;;;;;43.57;19.10;;;;;;;9.50;100.00;100778.34;2073041;28;20458;-66
2022/12/10 00:41:53;;;;;;;48.63;18.73;;;;;;;9.67;100.00;100810.44;2072391;28;20181;-66
2022/12/10 00:42:54;;;;;;;41.70;18.77;;;;;;;9.26;100.00;100760.94;2072456;28;20191;-66
2022/12/10 00:43:55;;;;;;;50.60;20.00;;;;;;;9.69;100.00;100796.97;2072999;28;20260;-66
2022/12/10 00:44:55;;;;;;;42.83;19.33;;;;;;;9.68;100.00;100798.94;2073015;28;20627;-66
2022/12/10 00:45:56;;;;;;;35.23;18.73;;;;;;;9.73;100.00;100800.47;2071798;28;20228;-66
2022/12/10 00:46:57;;;;;;;39.40;20.00;;;;;;;9.74;100.00;100799.25;2072380;28;20197;-65
2022/12/10 00:47:57;;;;;;;38.47;20.17;;;;;;;9.58;100.00;100783.31;2072748;28;20432;-65
2022/12/10 00:48:58;;;;;;;39.10;19.17;;;;;;;9.22;100.00;100745.63;2072862;28;20211;-66
2022/12/10 00:49:59;;;;;;;34.53;18.77;;;;;;;9.68;100.00;100804.50;2072851;28;21385;-66
2022/12/10 00:51:12;;;;;;;34.03;18.93;;;;;;;9.71;100.00;100806.41;2080395;28;20443;-65
2022/12/10 00:52:12;;;;;;;37.27;18.60;;;;;;;9.73;100.00;100804.00;2078586;28;20180;-66
2022/12/10 00:53:13;;;;;;;42.07;19.33;;;;;;;9.73;100.00;100800.47;2072438;28;20420;-66
2022/12/10 00:54:13;;;;;;;36.40;19.17;;;;;;;9.36;100.00;100742.59;2073127;28;20194;-66
2022/12/10 00:55:14;;;;;;;47.00;19.17;;;;;;;9.77;100.00;100793.66;2071962;28;20189;-66
2022/12/10 00:56:17;;;;;;;43.13;19.13;;;;;;;9.77;100.00;100801.97;2071510;28;20279;-66
2022/12/10 00:57:17;;;;;;;37.60;18.43;;;;;;;9.76;100.00;100796.84;2072765;28;20191;-66
2022/12/10 00:58:18;;;;;;;45.37;19.50;;;;;;;9.76;100.00;100805.16;2072917;28;20450;-65
2022/12/10 00:59:19;;;;;;;41.50;18.73;;;;;;;9.71;100.00;100795.34;2072754;28;20460;-65
2022/12/10 01:00:19;;;;;;;46.73;19.47;;;;;;;9.69;100.00;100796.97;2072601;28;20207;-65
2022/12/10 01:01:25;;;;;;;55.07;18.83;;;;;;;9.66;100.00;100783.97;2072560;28;20213;-66
2022/12/10 01:02:25;;;;;;;50.13;19.13;;;;;;;9.64;100.00;100787.16;2072934;28;21024;-66
2022/12/10 01:03:25;;;;;;;64.10;19.07;;;;;;;9.57;100.00;100767.13;2072279;28;21091;-66
2022/12/10 01:04:26;;;;;;;52.00;19.20;;;;;;;9.66;100.00;100779.22;2072760;28;20299;-65
2022/12/10 01:05:26;;;;;;;95.33;19.60;;;;;;;9.65;100.00;100774.13;2072763;28;20248;-65
2022/12/10 01:06:30;;;;;;;35.43;17.97;;;;;;;9.62;100.00;100781.28;2072401;28;20248;-66
2022/12/10 01:07:30;;;;;;;40.90;18.93;;;;;;;9.50;100.00;100761.72;2072737;28;20284;-65
2022/12/10 01:08:30;;;;;;;37.13;18.30;;;;;;;9.67;100.00;100789.09;2072714;28;20435;-66
2022/12/10 01:09:31;;;;;;;36.70;18.67;;;;;;;9.66;100.00;100789.50;2072578;28;20280;-66
2022/12/10 01:10:31;;;;;;;35.17;18.77;;;;;;;9.68;100.00;100792.66;2072279;28;20741;-66
2022/12/10 01:11:37;;;;;;;33.13;18.03;;;;;;;9.68;100.00;100798.19;2072173;28;20192;-65
2022/12/10 01:12:37;;;;;;;44.67;18.73;;;;;;;9.67;100.00;100800.16;2072583;28;20201;-66
2022/12/10 01:13:38;;;;;;;158.40;19.97;;;;;;;9.70;100.00;100795.78;2072122;28;20502;-65
2022/12/10 01:14:39;;;;;;;57.30;17.70;;;;;;;9.64;100.00;100789.94;2072788;28;21426;-66
2022/12/10 01:15:39;;;;;;;44.77;17.63;;;;;;;9.47;100.00;100795.75;2072340;28;20800;-66
2022/12/10 01:16:40;;;;;;;44.73;17.97;;;;;;;9.44;100.00;100796.63;2072792;28;20228;-65
2022/12/10 01:17:40;;;;;;;37.57;18.47;;;;;;;9.45;100.00;100798.97;2072654;28;20193;-66
2022/12/10 01:18:41;;;;;;;41.30;18.77;;;;;;;9.48;100.00;100795.34;2072889;28;20220;-65
2022/12/10 01:19:41;;;;;;;41.73;19.23;;;;;;;9.48;100.00;100802.88;2072591;28;20220;-66
2022/12/10 01:20:42;;;;;;;36.70;18.57;;;;;;;9.46;100.00;100806.06;2072830;28;20201;-66
2022/12/10 01:21:42;;;;;;;37.07;18.77;;;;;;;9.49;100.00;100810.72;2072634;28;20557;-66
2022/12/10 01:22:43;;;;;;;36.50;18.53;;;;;;;9.53;100.00;100807.94;2072214;28;20279;-66
2022/12/10 01:23:45;;;;;;;40.57;18.37;;;;;;;9.54;100.00;100810.25;2072458;28;20202;-66
2022/12/10 01:24:45;;;;;;;51.27;18.47;;;;;;;9.52;100.00;100809.91;2072575;28;20217;-65
2022/12/10 01:25:46;;;;;;;56.43;18.77;;;;;;;9.54;100.00;100809.50;2072017;28;20939;-66
2022/12/10 01:26:46;;;;;;;57.03;18.07;;;;;;;9.51;100.00;100808.34;2072685;28;20211;-66
2022/12/10 01:27:47;;;;;;;61.63;18.70;;;;;;;9.17;100.00;100757.16;2072735;28;20193;-66
2022/12/10 01:28:48;;;;;;;49.43;17.37;;;;;;;9.50;100.00;100794.94;2072578;28;20722;-66
2022/12/10 01:29:48;;;;;;;91.27;20.37;;;;;;;9.49;100.00;100787.84;2072622;28;20700;-66
2022/12/10 01:30:49;;;;;;;43.20;19.63;;;;;;;9.45;100.00;100785.13;2072606;28;20899;-66
2022/12/10 01:31:54;;;;;;;37.13;17.83;;;;;;;9.45;100.00;100782.38;2072225;28;20200;-65
2022/12/10 01:32:55;;;;;;;79.83;19.13;;;;;;;9.45;100.00;100778.81;2072149;28;20556;-66
2022/12/10 01:33:57;;;;;;;49.37;19.50;;;;;;;9.30;100.00;100774.72;2072469;28;20491;-65
2022/12/10 01:34:58;;;;;;;40.85;17.77;;;;;;;9.42;100.00;100788.72;2072576;28;20187;-65
2022/12/10 01:36:09;;;;;;;58.97;18.30;;;;;;;9.42;100.00;100785.16;2071720;28;20197;-66
2022/12/10 01:37:10;;;;;;;45.60;17.90;;;;;;;9.33;100.00;100782.94;2072501;28;20326;-66
2022/12/10 01:38:10;;;;;;;45.87;18.87;;;;;;;9.40;100.00;100784.81;2072881;28;20450;-65
2022/12/10 01:39:15;;;;;;;37.77;18.57;;;;;;;9.44;100.00;100786.31;2071693;28;20451;-66
2022/12/10 01:40:15;;;;;;;40.95;19.15;;;;;;;9.44;100.00;100774.47;2071796;28;20195;-66
2022/12/10 01:41:23;;;;;;;51.17;18.33;;;;;;;9.45;100.00;100778.81;2072330;28;20199;-66
2022/12/10 01:42:24;;;;;;;39.45;18.52;;;;;;;9.33;100.00;100752.53;2071999;28;20280;-66
2022/12/10 01:43:25;;;;;;;40.33;17.90;;;;;;;9.50;100.00;100778.34;2071850;28;20202;-65
2022/12/10 01:44:25;;;;;;;47.07;18.17;;;;;;;9.49;100.00;100774.00;2072440;28;20208;-66
2022/12/10 01:45:26;;;;;;;56.23;18.33;;;;;;;8.74;100.00;100660.31;2071518;28;20996;-66
2022/12/10 01:46:30;;;;;;;43.37;18.67;;;;;;;9.49;100.00;100777.53;2071369;28;20183;-65
2022/12/10 01:47:31;;;;;;;38.30;18.97;;;;;;;9.29;100.00;100756.56;2072495;28;20191;-66
2022/12/10 01:48:31;;;;;;;45.77;19.07;;;;;;;9.54;100.00;100774.28;2072530;28;20430;-66
2022/12/10 01:49:33;;;;;;;43.97;17.40;;;;;;;9.55;100.00;100775.09;2072410;28;20444;-65
2022/12/10 01:50:34;;;;;;;44.23;18.40;;;;;;;9.57;100.00;100773.47;2071569;28;20201;-66
2022/12/10 01:51:37;;;;;;;41.17;19.27;;;;;;;9.60;100.00;100771.84;2072523;28;20494;-66
2022/12/10 01:52:38;;;;;;;38.00;17.93;;;;;;;9.62;100.00;100769.41;2071983;28;20271;-65
2022/12/10 01:53:39;;;;;;;58.63;18.87;;;;;;;9.58;100.00;100765.94;2071885;28;20437;-66
2022/12/10 01:54:43;;;;;;;61.47;18.43;;;;;;;9.60;100.00;100769.06;2071724;28;20439;-65
2022/12/10 01:55:51;;;;;;;55.37;17.80;;;;;;;9.59;100.00;100782.09;2071603;28;20238;-65
2022/12/10 01:56:59;;;;;;;38.07;18.27;;;;;;;9.62;100.00;100783.25;2072385;28;20419;-66
2022/12/10 01:57:59;;;;;;;34.40;18.47;;;;;;;9.64;100.00;100773.31;2072287;28;20850;-66
2022/12/10 01:59:00;;;;;;;37.00;18.60;;;;;;;9.66;100.00;100770.13;2072140;28;20431;-66
2022/12/10 02:00:06;;;;;;;56.73;18.37;;;;;;;9.68;100.00;100767.75;2072577;28;20709;-66
2022/12/10 02:01:11;;;;;;;47.73;18.57;;;;;;;9.64;100.00;100772.56;2072431;28;20455;-65
2022/12/10 02:02:42;;;;;;;43.53;18.70;;;;;;;9.59;100.00;100770.28;2072234;28;20455;-65
2022/12/10 02:04:13;;;;;;;51.23;18.73;;;;;;;9.55;100.00;100789.72;2072030;28;20474;-65
2022/12/10 02:05:19;;;;;;;51.20;18.43;;;;;;;9.25;100.00;100711.59;2071317;28;20903;-65
2022/12/10 02:06:42;;;;;;;39.07;17.50;;;;;;;9.63;100.00;100771.75;2071440;28;20444;-66
2022/12/10 02:08:10;;;;;;;64.83;17.97;;;;;;;9.63;100.00;100782.06;2072300;28;20448;-66
2022/12/10 02:09:44;;;;;;;47.97;17.43;;;;;;;9.48;100.00;100759.38;2072174;28;20437;-65
2022/12/10 02:11:02;;;;;;;56.95;18.10;;;;;;;9.55;100.00;100775.09;2072187;28;20426;-65
2022/12/10 02:12:11;;;;;;;44.23;19.40;;;;;;;9.49;100.00;100762.94;2071906;28;20199;-66
2022/12/10 02:13:16;;;;;;;41.93;17.97;;;;;;;9.52;100.00;100767.63;2071614;28;20455;-65
2022/12/10 02:14:16;;;;;;;51.03;19.30;;;;;;;9.50;100.00;100767.25;2072316;28;20521;-65
2022/12/10 02:15:22;;;;;;;43.83;17.53;;;;;;;9.53;100.00;100764.44;2072070;28;20436;-65
2022/12/10 02:16:34;;;;;;;39.23;18.80;;;;;;;9.53;100.00;100771.97;2071737;28;20223;-66
2022/12/10 02:17:42;;;;;;;45.37;18.40;;;;;;;9.53;100.00;100774.72;2071506;28;20427;-65
2022/12/10 02:18:58;;;;;;;35.50;18.30;;;;;;;9.56;100.00;100774.66;2072078;28;21347;-66
2022/12/10 02:20:11;;;;;;;50.70;18.63;;;;;;;9.55;100.00;100772.31;2071571;28;20443;-65
2022/12/10 02:21:19;;;;;;;44.57;19.17;;;;;;;8.82;100.00;100650.69;2071359;28;20520;-66
2022/12/10 02:22:22;;;;;;;38.53;18.43;;;;;;;9.60;100.00;100761.56;2071411;28;20431;-66
2022/12/10 02:23:22;;;;;;;37.93;18.77;;;;;;;9.63;100.00;100759.94;2071641;28;20439;-66
2022/12/10 02:24:30;;;;;;;44.07;18.70;;;;;;;9.63;100.00;100757.94;2071615;28;20822;-66
2022/12/10 02:26:08;;;;;;;53.53;18.47;;;;;;;9.63;100.00;100751.63;2071389;28;20267;-66
2022/12/10 02:27:23;;;;;;;84.17;18.87;;;;;;;9.56;100.00;100754.50;2072044;28;20522;-66
2022/12/10 02:28:48;;;;;;;54.63;19.30;;;;;;;9.49;100.00;100749.88;2072236;28;21106;-66
2022/12/10 02:29:50;;;;;;;41.87;18.97;;;;;;;9.55;100.00;100756.50;2072015;28;21007;-66
2022/12/10 02:30:52;;;;;;;49.43;19.03;;;;;;;9.53;100.00;100742.28;2072298;28;20455;-66
2022/12/10 02:32:36;;;;;;;44.53;19.13;;;;;;;9.55;100.00;100733.59;2071637;28;20451;-65
2022/12/10 02:33:40;;;;;;;42.10;18.13;;;;;;;9.54;100.00;100729.25;2068203;28;20435;-66
2022/12/10 02:34:44;;;;;;;51.03;19.63;;;;;;;9.50;100.00;100732.09;2072296;28;20426;-66
2022/12/10 02:35:50;;;;;;;45.17;18.93;;;;;;;9.51;100.00;100732.84;2071679;28;20485;-66
2022/12/10 02:36:54;;;;;;;76.50;19.80;;;;;;;9.50;100.00;100726.56;2072347;28;20813;-66
2022/12/10 02:38:26;;;;;;;56.17;18.90;;;;;;;9.46;100.00;100717.53;2072190;28;20475;-66
2022/12/10 02:39:33;;;;;;;66.83;19.20;;;;;;;9.47;100.00;100721.88;2067899;28;20440;-65
2022/12/10 02:40:36;;;;;;;92.50;19.73;;;;;;;9.44;100.00;100714.41;2071602;28;20435;-65
2022/12/10 02:41:43;;;;;;;56.03;18.57;;;;;;;9.48;100.00;100722.66;2072058;28;20443;-65
2022/12/10 02:42:46;;;;;;;40.83;18.67;;;;;;;9.42;100.00;100722.34;2071752;28;20515;-66
2022/12/10 02:43:50;;;;;;;41.03;19.30;;;;;;;9.46;100.00;100706.47;2071962;28;20433;-66
2022/12/10 02:44:53;;;;;;;44.23;19.03;;;;;;;9.40;100.00;100696.31;2071971;28;21075;-65
2022/12/10 02:45:56;;;;;;;53.43;18.70;;;;;;;9.52;100.00;100709.53;2071557;28;20485;-65
2022/12/10 02:46:59;;;;;;;41.00;18.97;;;;;;;8.73;100.00;100591.66;2072075;28;20442;-66
2022/12/10 02:48:03;;;;;;;40.13;18.13;;;;;;;9.50;100.00;100709.97;2071942;28;20451;-66
2022/12/10 02:49:06;;;;;;;37.70;19.37;;;;;;;9.50;100.00;100709.97;2071912;28;20436;-66
2022/12/10 02:50:09;;;;;;;40.63;18.57;;;;;;;9.57;100.00;100717.34;2071954;28;20486;-66
2022/12/10 02:51:09;;;;;;;37.20;19.23;;;;;;;9.61;100.00;100724.38;2071880;28;20888;-66
2022/12/10 02:52:14;;;;;;;50.73;19.57;;;;;;;9.11;100.00;100642.72;2071626;28;20497;-65
2022/12/10 02:53:15;;;;;;;42.10;20.03;;;;;;;9.67;100.00;100725.44;2071223;28;20187;-65
2022/12/10 02:54:53;;;;;;;59.83;19.97;;;;;;;9.69;100.00;100719.50;2072169;28;20471;-66
2022/12/10 02:55:57;;;;;;;36.77;18.73;;;;;;;9.63;100.00;100723.97;2070034;28;20485;-66
2022/12/10 02:57:03;;;;;;;74.93;18.27;;;;;;;9.59;100.00;100726.78;2070673;28;20506;-65
2022/12/10 02:58:06;;;;;;;56.60;19.37;;;;;;;9.55;100.00;100731.59;2070816;28;20453;-66
2022/12/10 02:59:16;;;;;;;37.87;19.20;;;;;;;9.59;100.00;100732.31;2062614;28;20833;-66
2022/12/10 03:00:22;;;;;;;40.70;19.70;;;;;;;9.62;100.00;100734.25;2064839;28;20436;-66
2022/12/10 03:01:53;;;;;;;42.97;19.67;;;;;;;9.63;100.00;100738.56;2070798;28;20502;-66
2022/12/10 03:03:11;;;;;;;38.00;19.13;;;;;;;9.10;100.00;100655.75;2071517;28;20439;-66
2022/12/10 03:04:25;;;;;;;39.87;19.10;;;;;;;9.65;100.00;100735.38;2071952;28;20446;-65
2022/12/10 03:05:47;;;;;;;49.47;19.67;;;;;;;9.60;100.00;100722.81;2071797;28;21135;-66
2022/12/10 03:06:57;;;;;;;48.63;19.87;;;;;;;9.56;100.00;100724.06;2071881;28;20414;-65
2022/12/10 03:08:10;;;;;;;47.80;19.27;;;;;;;9.53;100.00;100733.22;2071648;28;20413;-65
2022/12/10 03:09:30;;;;;;;42.77;19.23;;;;;;;9.15;100.00;100668.31;2071457;28;20204;-65
2022/12/10 03:10:44;;;;;;;75.90;20.40;;;;;;;9.44;100.00;100724.69;2071917;28;20517;-65
2022/12/10 03:11:46;;;;;;;46.57;20.03;;;;;;;9.42;100.00;100727.88;2071577;28;20670;-66
2022/12/10 03:12:52;;;;;;;43.93;20.83;;;;;;;9.47;100.00;100732.94;2071438;28;20420;-65
2022/12/10 03:13:59;;;;;;;43.17;20.30;;;;;;;9.52;100.00;100729.69;2071596;28;20424;-65
2022/12/10 03:15:02;;;;;;;48.17;19.67;;;;;;;9.56;100.00;100747.00;2071919;28;20514;-66
2022/12/10 03:16:04;;;;;;;50.67;21.50;;;;;;;9.57;100.00;100720.09;2071413;28;20557;-65
2022/12/10 03:17:05;;;;;;;43.10;19.03;;;;;;;8.91;100.00;100617.78;2071903;28;20519;-65
2022/12/10 03:18:08;;;;;;;45.47;20.70;;;;;;;9.54;100.00;100721.72;2071802;28;20485;-66
2022/12/10 03:19:17;;;;;;;42.73;21.00;;;;;;;9.55;100.00;100701.19;2071074;28;20534;-66
2022/12/10 03:20:18;;;;;;;44.73;21.27;;;;;;;9.57;100.00;100700.72;2071364;28;20435;-66
2022/12/10 03:21:19;;;;;;;46.53;21.33;;;;;;;9.55;100.00;100692.88;2071673;28;20494;-66
2022/12/10 03:22:20;;;;;;;51.43;21.17;;;;;;;9.64;100.00;100690.31;2071319;28;20252;-65
2022/12/10 03:23:21;;;;;;;48.60;21.75;;;;;;;9.49;100.00;100691.03;2071124;28;20182;-66
2022/12/10 03:24:22;;;;;;;58.33;21.17;;;;;;;9.60;100.00;100717.28;2071590;28;20251;-66
2022/12/10 03:25:26;;;;;;;78.97;22.50;;;;;;;9.59;100.00;100718.47;2071433;28;21036;-65
2022/12/10 03:26:27;;;;;;;58.77;22.10;;;;;;;9.60;100.00;100720.06;2071102;28;20418;-66
2022/12/10 03:27:29;;;;;;;48.23;21.50;;;;;;;9.61;100.00;100720.81;2071643;28;20470;-65
2022/12/10 03:28:34;;;;;;;78.70;21.03;;;;;;;9.56;100.00;100716.56;2071855;28;20448;-65
2022/12/10 03:29:47;;;;;;;43.87;20.17;;;;;;;9.36;100.00;100717.72;2071464;28;20549;-66
2022/12/10 03:31:08;;;;;;;37.60;19.47;;;;;;;9.33;100.00;100715.81;2071975;28;20788;-66
2022/12/10 03:32:10;;;;;;;37.73;18.80;;;;;;;9.31;100.00;100720.97;2071506;28;20469;-65
2022/12/10 03:33:12;;;;;;;38.90;19.93;;;;;;;9.31;100.00;100719.00;2071194;28;20466;-65
2022/12/10 03:34:13;;;;;;;40.70;20.67;;;;;;;9.29;100.00;100710.34;2071299;28;20814;-66
2022/12/10 03:35:15;;;;;;;39.70;19.97;;;;;;;9.14;100.00;100699.94;2071685;28;20534;-66
2022/12/10 03:36:18;;;;;;;37.27;19.30;;;;;;;9.24;100.00;100713.59;2070676;28;20547;-66
2022/12/10 03:37:20;;;;;;;40.60;20.58;;;;;;;8.83;100.00;100665.31;2071535;28;20442;-66
2022/12/10 03:38:20;;;;;;;34.87;19.00;;;;;;;9.22;100.00;100704.16;2071620;28;20226;-65
2022/12/10 03:39:22;;;;;;;38.37;20.13;;;;;;;8.59;100.00;100608.47;2070794;28;20430;-65
2022/12/10 03:40:24;;;;;;;34.90;19.93;;;;;;;8.60;100.00;100604.50;2071360;28;20239;-66
2022/12/10 03:41:25;;;;;;;37.93;19.50;;;;;;;9.15;100.00;100691.22;2071781;28;20428;-65
2022/12/10 03:42:25;;;;;;;36.97;19.30;;;;;;;9.25;100.00;100706.06;2071418;28;20479;-65
2022/12/10 03:43:25;;;;;;;34.23;19.50;;;;;;;9.29;100.00;100704.81;2071152;28;20687;-66
2022/12/10 03:44:32;;;;;;;36.30;20.30;;;;;;;9.34;100.00;100696.03;2071604;28;20598;-66
2022/12/10 03:45:32;;;;;;;34.13;18.97;;;;;;;9.23;100.00;100680.81;2071506;28;20250;-66
2022/12/10 03:46:33;;;;;;;35.37;19.67;;;;;;;8.78;100.00;100627.09;2071261;28;20439;-65
2022/12/10 03:47:33;;;;;;;35.80;19.33;;;;;;;9.40;100.00;100710.94;2071622;28;20203;-66
2022/12/10 03:48:34;;;;;;;39.53;21.13;;;;;;;9.37;100.00;100697.94;2071677;28;20192;-66
2022/12/10 03:49:34;;;;;;;41.33;20.80;;;;;;;9.37;100.00;100703.47;2071412;28;20188;-66
2022/12/10 03:50:35;;;;;;;41.20;21.27;;;;;;;9.43;100.00;100698.25;2071801;28;20184;-66
2022/12/10 03:51:35;;;;;;;41.10;20.73;;;;;;;9.47;100.00;100705.25;2071474;28;20534;-65
2022/12/10 03:52:36;;;;;;;40.30;22.67;;;;;;;9.48;100.00;100704.06;2071373;28;20275;-66
2022/12/10 03:53:36;;;;;;;41.30;21.93;;;;;;;8.96;100.00;100622.84;2071028;28;20203;-66
2022/12/10 03:54:37;;;;;;;40.53;21.33;;;;;;;9.44;100.00;100697.03;2071620;28;20218;-66
2022/12/10 03:55:37;;;;;;;37.90;21.13;;;;;;;9.47;100.00;100701.72;2070789;28;20708;-66
2022/12/10 03:56:38;;;;;;;37.20;20.60;;;;;;;9.51;100.00;100697.69;2071440;28;20176;-66
2022/12/10 03:57:38;;;;;;;40.03;20.93;;;;;;;9.24;100.00;100657.50;2071479;28;20219;-66
2022/12/10 03:58:39;;;;;;;39.97;20.13;;;;;;;9.55;100.00;100705.91;2071873;28;20215;-66
2022/12/10 03:59:40;;;;;;;38.17;20.77;;;;;;;9.50;100.00;100723.00;2071537;28;20204;-65
2022/12/10 04:00:40;;;;;;;40.33;20.67;;;;;;;9.58;100.00;100716.16;2071617;28;20280;-66
2022/12/10 04:01:41;;;;;;;38.77;21.13;;;;;;;9.61;100.00;100718.84;2071311;28;20181;-66
2022/12/10 04:02:42;;;;;;;37.27;20.93;;;;;;;9.63;100.00;100721.97;2070791;28;20217;-65
2022/12/10 04:03:42;;;;;;;39.47;21.47;;;;;;;9.54;100.00;100709.91;2071321;28;20184;-65
2022/12/10 04:04:43;;;;;;;38.30;20.50;;;;;;;9.61;100.00;100721.63;2071248;28;20671;-66
2022/12/10 04:05:43;;;;;;;40.57;21.97;;;;;;;9.66;100.00;100723.09;2070960;28;20569;-65
2022/12/10 04:06:44;;;;;;;40.47;21.03;;;;;;;9.63;100.00;100704.59;2071851;28;20192;-66
2022/12/10 04:07:44;;;;;;;45.47;22.13;;;;;;;9.66;100.00;100698.19;2071484;28;20197;-65
2022/12/10 04:08:46;;;;;;;39.03;20.63;;;;;;;9.62;100.00;100712.09;2071625;28;20196;-66
2022/12/10 04:09:46;;;;;;;42.40;22.00;;;;;;;9.58;100.00;100710.63;2071577;28;20211;-66
2022/12/10 04:10:47;;;;;;;39.93;21.20;;;;;;;9.61;100.00;100712.53;2070889;28;20983;-66
2022/12/10 04:11:47;;;;;;;40.00;21.60;;;;;;;8.62;100.00;100555.16;2070538;28;20287;-65
2022/12/10 04:16:26;;;;;;;39.23;21.47;;;;;;;9.51;100.00;100680.31;2070996;28;20245;-66
2022/12/10 04:16:48;;;;;;;43.40;22.07;;;;;;;9.51;100.00;100707.97;2071784;28;20433;-65
2022/12/10 04:17:48;;;;;;;46.17;22.90;;;;;;;9.39;100.00;100697.53;2071415;28;20811;-65
2022/12/10 04:18:49;;;;;;;42.03;21.90;;;;;;;9.46;100.00;100711.22;2071665;28;20220;-65
2022/12/10 04:19:49;;;;;;;43.23;21.87;;;;;;;9.48;100.00;100717.88;2071219;28;20718;-65
2022/12/10 04:27:29;;;;;;;42.40;20.87;;;;;;;9.50;100.00;100690.59;2070710;28;20439;-66
2022/12/10 04:28:29;;;;;;;40.10;21.83;;;;;;;9.50;100.00;100692.56;2071382;28;21075;-66
2022/12/10 04:29:30;;;;;;;42.03;22.30;;;;;;;9.03;100.00;100633.00;2071245;28;20868;-66
2022/12/10 04:30:31;;;;;;;39.93;22.13;;;;;;;9.50;100.00;100704.44;2071623;28;20226;-66
2022/12/10 04:31:31;;;;;;;42.97;21.80;;;;;;;9.31;100.00;100683.03;2071453;28;20441;-65
2022/12/10 04:32:32;;;;;;;39.30;21.43;;;;;;;9.48;100.00;100709.59;2070461;28;20235;-66
2022/12/10 04:33:32;;;;;;;40.70;22.30;;;;;;;9.57;100.00;100715.34;2070159;28;20243;-65
2022/12/10 04:34:33;;;;;;;39.53;21.87;;;;;;;9.49;100.00;100705.63;2070778;28;20459;-65
2022/12/10 04:35:33;;;;;;;38.20;21.37;;;;;;;9.44;100.00;100697.81;2070646;28;20698;-65
2022/12/10 04:36:34;;;;;;;39.40;22.27;;;;;;;9.60;100.00;100722.81;2071336;28;20219;-65
2022/12/10 04:37:34;;;;;;;42.47;23.23;;;;;;;9.63;100.00;100707.38;2070683;28;20190;-65
2022/12/10 04:38:35;;;;;;;40.53;21.67;;;;;;;9.56;100.00;100697.19;2070858;28;20717;-66
2022/12/10 04:39:36;;;;;;;39.47;22.17;;;;;;;9.51;100.00;100696.91;2071302;28;20197;-65
2022/12/10 04:40:37;;;;;;;39.63;22.07;;;;;;;9.54;100.00;100699.59;2070940;28;20267;-66
2022/12/10 04:41:40;;;;;;;39.80;21.80;;;;;;;8.92;100.00;100605.53;2071282;28;20490;-66
2022/12/10 04:42:41;;;;;;;41.27;22.60;;;;;;;9.61;100.00;100701.47;2070908;28;20196;-65
2022/12/10 04:43:42;;;;;;;41.87;22.50;;;;;;;9.05;100.00;100616.75;2071012;28;20420;-65
2022/12/10 04:44:42;;;;;;;36.30;21.23;;;;;;;9.62;100.00;100712.09;2071304;28;20216;-66
2022/12/10 04:45:43;;;;;;;41.07;21.60;;;;;;;9.64;100.00;100695.84;2071067;28;20989;-65
2022/12/10 04:46:44;;;;;;;40.37;21.00;;;;;;;9.60;100.00;100700.69;2071499;28;20194;-66
2022/12/10 04:47:44;;;;;;;37.83;20.93;;;;;;;9.59;100.00;100699.09;2071190;28;20196;-66
2022/12/10 04:48:45;;;;;;;37.40;21.40;;;;;;;9.53;100.00;100681.44;2071512;28;20443;-65
2022/12/10 04:49:45;;;;;;;38.97;21.77;;;;;;;9.59;100.00;100682.50;2071144;28;20191;-66
2022/12/10 04:50:46;;;;;;;37.80;22.40;;;;;;;9.23;100.00;100637.34;2071412;28;20188;-66
2022/12/10 04:51:47;;;;;;;38.40;21.13;;;;;;;9.66;100.00;100700.97;2071116;28;20216;-66
2022/12/10 04:52:47;;;;;;;38.20;21.17;;;;;;;8.65;100.00;100541.28;2070898;28;20220;-66
2022/12/10 04:53:48;;;;;;;38.53;21.23;;;;;;;9.70;100.00;100699.72;2071393;28;20200;-66
2022/12/10 04:54:48;;;;;;;36.90;22.00;;;;;;;9.53;100.00;100684.22;2070856;28;20224;-65
2022/12/10 04:55:48;;;;;;;39.03;22.37;;;;;;;9.60;100.00;100686.06;2070541;28;20608;-65
2022/12/10 04:56:49;;;;;;;39.33;22.60;;;;;;;9.32;100.00;100634.81;2071456;28;20185;-66
2022/12/10 04:57:49;;;;;;;39.93;21.73;;;;;;;9.61;100.00;100676.56;2071284;28;20225;-66
2022/12/10 04:58:50;;;;;;;37.17;21.67;;;;;;;9.70;100.00;100702.47;2071530;28;20653;-66